Hanover, Illinois
Current Conditions -  °F | °C
As of 8:15 PM on Saturday 25 Oct 2014 (Local Time) from KSFY Reporting Station
Clear Clear  
Wind Chill: 15°   Ceiling: Unl
Heat Index: 15°   Visibility: 10mi
Dew Point:   Wind: 3mph
Humidity: 40%   Direction: 310°NW
Pressure: 30.01"   Gusts: NA
Location:  42.26°N, 90.28°W
Report Text: KSFY 260115Z AUTO 31003KT 10SM CLR 15/02 A3001 RMK AO2 T01510015
Loading
Personal Weather Stations






























Interactive Weather Map
Tropical Storm Tracking
New forecast layout! Learn more

10-Day Weather Forecast

Advertisements
Track Severe Weather on mobile